createdAt,value
2022-09-15T00:00:29.975Z,99113.25
2022-09-15T00:03:53.121Z,99103.69
2022-09-15T00:06:55.422Z,99092.22
2022-09-15T00:09:58.118Z,99075.56
2022-09-15T00:13:00.320Z,99064.28
2022-09-15T00:16:03.526Z,99047.63
2022-09-15T00:19:06.769Z,98994.94
2022-09-15T00:22:15.960Z,99016.25
2022-09-15T00:25:19.213Z,99028.69
2022-09-15T00:28:22.526Z,99020.72
2022-09-15T00:31:25.553Z,99050.69
2022-09-15T00:34:28.291Z,99076.31
2022-09-15T00:37:30.579Z,99076.69
2022-09-15T00:40:33.839Z,99091.59
2022-09-15T00:43:48.487Z,99091.97
2022-09-15T00:47:09.714Z,99109.50
2022-09-15T00:50:16.829Z,99135.97
2022-09-15T00:53:21.219Z,99144.69
2022-09-15T00:56:24.685Z,99141.06
2022-09-15T00:59:29.254Z,99144.78
2022-09-15T01:02:33.247Z,99137.53
2022-09-15T01:05:38.155Z,99133.25
2022-09-15T01:08:44.602Z,99136.81
2022-09-15T01:11:49.168Z,99129.47
2022-09-15T01:14:51.576Z,99146.44
2022-09-15T01:18:03.297Z,99152.94
2022-09-15T01:21:14.747Z,99131.81
2022-09-15T01:24:47.502Z,99133.50
2022-09-15T01:27:55.865Z,99140.69
2022-09-15T01:31:05.454Z,99135.50
2022-09-15T01:34:16.260Z,99142.38
2022-09-15T01:37:24.333Z,99130.34
2022-09-15T01:40:29.813Z,99128.62
2022-09-15T01:43:34.431Z,99118.88
2022-09-15T01:46:41.201Z,99129.97
2022-09-15T01:49:58.777Z,99128.91
2022-09-15T01:53:02.978Z,99143.91
2022-09-15T01:56:07.392Z,99139.34
2022-09-15T01:59:09.721Z,99142.06
2022-09-15T02:02:15.161Z,99142.97
2022-09-15T02:05:36.138Z,99136.47
2022-09-15T02:08:44.939Z,99137.38
2022-09-15T02:11:58.055Z,99140.25
2022-09-15T02:15:08.043Z,99132.00
2022-09-15T02:18:14.224Z,99140.66
2022-09-15T02:21:51.058Z,99134.75
2022-09-15T02:25:05.793Z,99141.00
2022-09-15T02:28:10.116Z,99144.56
2022-09-15T02:31:15.315Z,99144.69
2022-09-15T02:34:30.395Z,99142.31
2022-09-15T02:37:33.450Z,99138.84
2022-09-15T02:40:39.990Z,99142.72
2022-09-15T02:43:46.688Z,99149.50
2022-09-15T02:46:49.333Z,99156.78
2022-09-15T02:49:51.904Z,99150.41
2022-09-15T02:52:54.778Z,99151.22
2022-09-15T02:55:57.994Z,99158.22
2022-09-15T02:59:00.572Z,99151.34
2022-09-15T03:02:06.324Z,99148.84
2022-09-15T03:05:11.789Z,99143.62
2022-09-15T03:08:14.334Z,99142.72
2022-09-15T03:11:21.196Z,99141.50
2022-09-15T03:14:26.462Z,99143.56
2022-09-15T03:17:36.301Z,99147.03
2022-09-15T03:20:40.707Z,99144.84
2022-09-15T03:23:43.326Z,99155.25
2022-09-15T03:26:46.403Z,99152.12
2022-09-15T03:29:49.014Z,99150.28
2022-09-15T03:32:53.989Z,99151.38
2022-09-15T03:35:56.822Z,99149.19
2022-09-15T03:38:59.479Z,99145.28
2022-09-15T03:42:02.075Z,99152.94
2022-09-15T03:45:05.719Z,99140.09
2022-09-15T03:48:08.726Z,99140.22
2022-09-15T03:51:11.614Z,99136.62
2022-09-15T03:54:15.241Z,99139.31
2022-09-15T03:57:18.326Z,99139.19
2022-09-15T04:00:21.420Z,99148.03
2022-09-15T04:03:24.059Z,99149.34
2022-09-15T04:06:27.130Z,99147.00
2022-09-15T04:09:30.605Z,99154.00
2022-09-15T04:12:33.328Z,99153.38
2022-09-15T04:15:38.535Z,99158.34
2022-09-15T04:18:41.274Z,99168.00
2022-09-15T04:21:45.614Z,99163.63
2022-09-15T04:24:48.464Z,99166.28
2022-09-15T04:27:51.002Z,99158.91
2022-09-15T04:30:56.898Z,99157.13
2022-09-15T04:33:59.584Z,99165.00
2022-09-15T04:37:02.641Z,99170.91
2022-09-15T04:40:05.633Z,99183.09
2022-09-15T04:43:08.451Z,99198.94
2022-09-15T04:46:12.555Z,99199.31
2022-09-15T04:49:15.044Z,99185.78
2022-09-15T04:52:17.573Z,99190.03
2022-09-15T04:55:19.991Z,99174.41
2022-09-15T04:58:22.550Z,99179.75
2022-09-15T05:01:26.916Z,99179.59
2022-09-15T05:04:32.240Z,99157.66
2022-09-15T05:07:34.816Z,99169.34
2022-09-15T05:10:38.226Z,99168.22
2022-09-15T05:13:41.402Z,99179.47
2022-09-15T05:16:44.057Z,99176.97
2022-09-15T05:19:46.735Z,99179.84
2022-09-15T05:22:49.526Z,99199.53
2022-09-15T05:25:56.213Z,99201.22
2022-09-15T05:29:01.291Z,99226.81
2022-09-15T05:32:03.860Z,99221.66
2022-09-15T05:35:06.892Z,99227.94
2022-09-15T05:38:12.518Z,99236.50
2022-09-15T05:41:16.969Z,99248.00
2022-09-15T05:44:21.453Z,99239.97
2022-09-15T05:47:24.352Z,99241.03
2022-09-15T05:50:27.063Z,99238.56
2022-09-15T05:53:30.947Z,99255.19
2022-09-15T05:56:34.430Z,99235.56
2022-09-15T05:59:39.226Z,99242.88
2022-09-15T06:02:42.016Z,99231.44
2022-09-15T06:05:44.653Z,99229.38
2022-09-15T06:08:51.895Z,99229.47
2022-09-15T06:11:57.584Z,99230.28
2022-09-15T06:15:00.012Z,99239.19
2022-09-15T06:18:02.886Z,99233.06
2022-09-15T06:21:07.071Z,99228.50
2022-09-15T06:24:12.244Z,99225.09
2022-09-15T06:27:14.724Z,99235.59
2022-09-15T06:30:17.910Z,99236.31
2022-09-15T06:33:20.508Z,99245.75
2022-09-15T06:36:24.881Z,99258.88
2022-09-15T06:39:27.383Z,99257.41
2022-09-15T06:42:29.995Z,99251.63
2022-09-15T06:45:32.438Z,99256.09
2022-09-15T06:48:38.351Z,99261.22
2022-09-15T06:51:40.790Z,99263.09
2022-09-15T06:54:43.326Z,99254.81
2022-09-15T06:57:45.828Z,99261.94
2022-09-15T07:00:48.329Z,99274.50
2022-09-15T07:03:51.131Z,99283.19
2022-09-15T07:06:53.656Z,99274.97
2022-09-15T07:09:56.123Z,99266.00
2022-09-15T07:13:01.261Z,99266.16
2022-09-15T07:16:04.793Z,99282.75
2022-09-15T07:19:07.459Z,99291.38
2022-09-15T07:22:11.974Z,99289.81
2022-09-15T07:25:14.510Z,99289.03
2022-09-15T07:28:17.417Z,99302.81
2022-09-15T07:31:20.757Z,99296.22
2022-09-15T07:34:23.268Z,99296.75
2022-09-15T07:37:25.748Z,99299.56
2022-09-15T07:40:28.954Z,99296.38
2022-09-15T07:43:31.790Z,99293.75
2022-09-15T07:46:34.264Z,99293.16
2022-09-15T07:49:36.796Z,99299.25
2022-09-15T07:52:39.677Z,99293.34
2022-09-15T07:55:42.239Z,99293.13
2022-09-15T07:58:48.326Z,99297.31
2022-09-15T08:01:51.304Z,99293.19
2022-09-15T08:04:56.551Z,99301.66
2022-09-15T08:07:58.792Z,99293.84
2022-09-15T08:11:05.227Z,99301.72
2022-09-15T08:14:07.646Z,99288.69
2022-09-15T08:17:11.693Z,99305.44
2022-09-15T08:20:14.367Z,99293.16
2022-09-15T08:23:17.113Z,99295.41
2022-09-15T08:26:19.588Z,99296.88
2022-09-15T08:29:22.458Z,99294.16
2022-09-15T08:32:25.676Z,99293.88
2022-09-15T08:35:29.469Z,99295.41
2022-09-15T08:38:32.385Z,99283.97
2022-09-15T08:41:45.449Z,99269.41
2022-09-15T08:44:47.690Z,99265.50
2022-09-15T08:47:58.077Z,99272.91
2022-09-15T08:51:04.475Z,99275.78
2022-09-15T08:54:10.275Z,99278.53
2022-09-15T08:57:14.902Z,99269.94
2022-09-15T09:00:17.751Z,99267.81
2022-09-15T09:03:23.507Z,99257.75
2022-09-15T09:07:01.918Z,99248.75
2022-09-15T09:10:07.049Z,99235.97
2022-09-15T09:13:25.928Z,99236.03
2022-09-15T09:16:40.900Z,99226.22
2022-09-15T09:19:55.456Z,99227.09
2022-09-15T09:23:00.064Z,99224.94
2022-09-15T09:26:04.090Z,99215.31
2022-09-15T09:29:18.746Z,99211.53
2022-09-15T09:32:34.072Z,99207.00
2022-09-15T09:35:45.030Z,99206.19
2022-09-15T09:38:48.709Z,99207.47
2022-09-15T09:41:51.091Z,99210.03
2022-09-15T09:44:54.068Z,99211.84
2022-09-15T09:48:01.813Z,99221.13
2022-09-15T09:51:04.728Z,99212.97
2022-09-15T09:54:12.728Z,99217.56
2022-09-15T09:57:21.835Z,99198.50
2022-09-15T10:00:36.505Z,99203.69
2022-09-15T10:03:39.372Z,99195.69
2022-09-15T10:06:41.718Z,99193.06
2022-09-15T10:09:49.418Z,99178.50
2022-09-15T10:12:55.760Z,99171.41
2022-09-15T10:16:00.656Z,99166.88
2022-09-15T10:19:03.016Z,99162.19
2022-09-15T10:22:05.924Z,99149.00
2022-09-15T10:25:44.175Z,99147.53
2022-09-15T10:29:10.260Z,99129.38
2022-09-15T10:32:25.174Z,99127.53
2022-09-15T10:35:32.794Z,99121.59
2022-09-15T10:38:43.412Z,99123.03
2022-09-15T10:42:06.866Z,99118.28
2022-09-15T10:45:09.296Z,99124.41
2022-09-15T10:48:31.039Z,99130.53
2022-09-15T10:51:56.625Z,99132.19
2022-09-15T10:54:59.335Z,99134.38
2022-09-15T10:58:13.735Z,99128.12
2022-09-15T11:01:35.208Z,99127.44
2022-09-15T11:04:57.298Z,99124.22
2022-09-15T11:08:12.516Z,99124.22
2022-09-15T11:11:41.702Z,99123.00
2022-09-15T11:15:07.222Z,99117.19
2022-09-15T11:18:12.054Z,99122.56
2022-09-15T11:21:14.837Z,99130.75
2022-09-15T11:24:35.089Z,99124.25
2022-09-15T11:27:51.399Z,99134.69
2022-09-15T11:31:01.043Z,99125.00
2022-09-15T11:34:19.776Z,99130.63
2022-09-15T11:37:52.577Z,99129.41
2022-09-15T11:40:58.826Z,99116.50
2022-09-15T11:44:16.721Z,99110.13
2022-09-15T11:47:19.961Z,99094.81
2022-09-15T11:50:25.156Z,99081.50
2022-09-15T11:53:33.479Z,99072.88
2022-09-15T11:56:38.887Z,99066.88
2022-09-15T12:00:05.735Z,99054.41
2022-09-15T12:03:24.556Z,99049.41
2022-09-15T12:06:30.325Z,99059.78
2022-09-15T12:09:33.355Z,99063.13
2022-09-15T12:12:36.348Z,99057.47
2022-09-15T12:15:39.104Z,99065.28
2022-09-15T12:18:47.388Z,99077.09
2022-09-15T12:21:59.591Z,99072.28
2022-09-15T12:25:22.372Z,99068.97
2022-09-15T12:28:25.082Z,99063.44
2022-09-15T12:31:29.583Z,99053.59
2022-09-15T12:34:36.612Z,99051.38
2022-09-15T12:37:44.593Z,99049.88
2022-09-15T12:40:57.009Z,99050.25
2022-09-15T12:44:05.453Z,99034.34
2022-09-15T12:47:18.575Z,99039.31
2022-09-15T12:50:27.328Z,99035.66
2022-09-15T12:53:32.277Z,99021.06
2022-09-15T12:56:34.956Z,99004.44
2022-09-15T12:59:37.631Z,99009.28
2022-09-15T13:02:46.481Z,99029.28
2022-09-15T13:05:49.045Z,99034.69
2022-09-15T13:08:53.659Z,99054.56
2022-09-15T13:11:56.679Z,99090.00
2022-09-15T13:15:01.718Z,99177.50
2022-09-15T13:18:05.671Z,99104.91
2022-09-15T13:21:12.769Z,99109.56
2022-09-15T13:24:22.194Z,99095.19
2022-09-15T13:27:45.122Z,99071.66
2022-09-15T13:31:00.442Z,99068.00
2022-09-15T13:41:22.330Z,99104.56
2022-09-15T13:44:47.471Z,99100.91
2022-09-15T13:48:10.334Z,99083.31
2022-09-15T13:51:23.319Z,99073.44
2022-09-15T13:54:25.751Z,99067.94
2022-09-15T14:00:51.793Z,99088.22
2022-09-15T14:04:00.731Z,99089.06
2022-09-15T14:07:03.259Z,99059.88
2022-09-15T14:10:06.900Z,99070.34
2022-09-15T14:13:13.243Z,99091.56
2022-09-15T14:16:24.803Z,99088.75
2022-09-15T14:19:33.864Z,99058.63
2022-09-15T14:22:40.838Z,99061.16
2022-09-15T14:25:45.764Z,99069.13
2022-09-15T14:28:52.989Z,99065.59
2022-09-15T14:31:59.798Z,99056.75
2022-09-15T14:35:05.499Z,99077.03
2022-09-15T14:38:19.314Z,99098.19
2022-09-15T14:41:22.678Z,99106.19
2022-09-15T14:48:01.416Z,99126.75
2022-09-15T14:51:24.088Z,99107.00
2022-09-15T14:54:29.874Z,99111.38
2022-09-15T14:57:33.630Z,99109.00
2022-09-15T15:00:55.171Z,99117.06
2022-09-15T15:03:57.617Z,99126.94
2022-09-15T15:07:07.764Z,99144.91
2022-09-15T15:10:21.977Z,99129.88
2022-09-15T15:13:24.672Z,99113.00
2022-09-15T15:16:29.877Z,99113.78
2022-09-15T15:19:35.359Z,99112.72
2022-09-15T15:22:39.551Z,99107.44
2022-09-15T15:25:42.560Z,99100.34
2022-09-15T15:28:45.760Z,99076.50
2022-09-15T15:31:48.381Z,99074.69
2022-09-15T15:34:52.680Z,99072.94
2022-09-15T15:38:14.233Z,99067.69
2022-09-15T15:41:27.677Z,99125.97
2022-09-15T15:44:31.315Z,99128.12
2022-09-15T15:47:36.383Z,99119.31
2022-09-15T15:50:38.953Z,99112.94
2022-09-15T15:53:42.724Z,99105.41
2022-09-15T15:56:45.352Z,99098.22
2022-09-15T15:59:48.042Z,99086.97
2022-09-15T16:02:54.809Z,99077.78
2022-09-15T16:05:58.442Z,99092.13
2022-09-15T16:09:01.415Z,99073.72
2022-09-15T16:12:05.428Z,99057.22
2022-09-15T16:15:15.815Z,99058.72
2022-09-15T16:18:18.853Z,99042.28
2022-09-15T16:21:26.184Z,99032.00
2022-09-15T16:24:28.957Z,99024.84
2022-09-15T16:27:31.341Z,99011.75
2022-09-15T16:30:34.193Z,99017.09
2022-09-15T16:33:38.261Z,99022.31
2022-09-15T16:36:41.102Z,99025.69
2022-09-15T16:39:43.412Z,99037.78
2022-09-15T16:42:46.885Z,99036.81
2022-09-15T16:45:50.541Z,99025.97
2022-09-15T16:48:54.690Z,99030.72
2022-09-15T16:51:57.119Z,99043.19
2022-09-15T16:54:59.804Z,99063.13
2022-09-15T16:58:02.719Z,99066.81
2022-09-15T17:01:05.675Z,99061.59
2022-09-15T17:04:16.732Z,99052.69
2022-09-15T17:07:19.604Z,99063.25
2022-09-15T17:10:22.272Z,99065.84
2022-09-15T17:13:29.374Z,99070.16
2022-09-15T17:16:32.706Z,99074.78
2022-09-15T17:19:37.639Z,99082.66
2022-09-15T17:22:40.074Z,99079.34
2022-09-15T17:25:48.958Z,99065.34
2022-09-15T17:28:51.607Z,99068.88
2022-09-15T17:31:54.278Z,99067.00
2022-09-15T17:34:56.542Z,99061.72
2022-09-15T17:37:59.355Z,99057.31
2022-09-15T17:41:03.058Z,99048.50
2022-09-15T17:44:12.855Z,99048.53
2022-09-15T17:47:16.766Z,99041.50
2022-09-15T17:50:23.305Z,99051.19
2022-09-15T17:53:28.627Z,99055.63
2022-09-15T17:56:33.000Z,99049.06
2022-09-15T17:59:35.406Z,99061.31
2022-09-15T18:02:40.022Z,99048.50
2022-09-15T18:05:42.733Z,99044.22
2022-09-15T18:08:45.293Z,99054.81
2022-09-15T18:11:47.935Z,99054.81
2022-09-15T18:14:50.523Z,99052.16
2022-09-15T18:17:55.229Z,99063.59
2022-09-15T18:20:58.341Z,99060.16
2022-09-15T18:24:02.060Z,99065.34
2022-09-15T18:27:04.921Z,99068.78
2022-09-15T18:30:07.770Z,99075.06
2022-09-15T18:33:18.279Z,99082.12
2022-09-15T18:36:21.183Z,99083.09
2022-09-15T18:39:23.581Z,99084.75
2022-09-15T18:42:28.491Z,99072.56
2022-09-15T18:45:33.718Z,99074.47
2022-09-15T18:48:36.297Z,99081.56
2022-09-15T18:51:51.224Z,99088.59
2022-09-15T18:54:54.402Z,99092.22
2022-09-15T18:58:00.813Z,99093.06
2022-09-15T19:01:04.991Z,99101.91
2022-09-15T19:07:43.539Z,99104.66
2022-09-15T19:10:47.974Z,99105.56
2022-09-15T19:13:54.495Z,99116.22
2022-09-15T19:16:58.462Z,99118.75
2022-09-15T19:20:02.338Z,99104.81
2022-09-15T19:23:07.300Z,99105.72
2022-09-15T19:26:13.853Z,99102.16
2022-09-15T19:29:25.349Z,99109.16
2022-09-15T19:32:28.934Z,99100.38
2022-09-15T19:35:31.677Z,99113.56
2022-09-15T19:38:36.196Z,99135.59
2022-09-15T19:41:39.107Z,99129.41
2022-09-15T19:44:41.422Z,99121.44
2022-09-15T19:47:44.201Z,99121.38
2022-09-15T19:50:46.484Z,99124.91
2022-09-15T19:53:49.376Z,99118.66
2022-09-15T19:56:51.782Z,99134.47
2022-09-15T19:59:58.840Z,99140.47
2022-09-15T20:03:01.050Z,99134.50
2022-09-15T20:06:05.884Z,99135.78
2022-09-15T20:09:09.209Z,99130.81
2022-09-15T20:12:11.982Z,99132.78
2022-09-15T20:15:14.369Z,99136.28
2022-09-15T20:18:17.943Z,99144.16
2022-09-15T20:21:45.809Z,99149.47
2022-09-15T20:24:47.772Z,99151.25
2022-09-15T20:27:52.451Z,99158.94
2022-09-15T20:31:14.894Z,99161.47
2022-09-15T20:34:18.647Z,99152.88
2022-09-15T20:37:23.053Z,99159.12
2022-09-15T20:40:26.448Z,99153.84
2022-09-15T20:43:29.278Z,99170.66
2022-09-15T20:46:31.572Z,99170.63
2022-09-15T20:49:34.831Z,99171.50
2022-09-15T20:52:38.514Z,99179.44
2022-09-15T20:55:47.815Z,99189.16
2022-09-15T20:58:50.174Z,99201.44
2022-09-15T21:01:52.897Z,99201.88
2022-09-15T21:04:56.668Z,99191.47
2022-09-15T21:07:59.992Z,99192.63
2022-09-15T21:11:02.436Z,99192.59
2022-09-15T21:14:05.542Z,99204.00
2022-09-15T21:17:08.179Z,99197.72
2022-09-15T21:20:10.906Z,99204.97
2022-09-15T21:23:13.231Z,99206.75
2022-09-15T21:26:17.185Z,99199.72
2022-09-15T21:29:19.963Z,99197.94
2022-09-15T21:32:24.311Z,99191.66
2022-09-15T21:35:26.536Z,99201.41
2022-09-15T21:38:29.601Z,99204.91
2022-09-15T21:41:31.859Z,99204.09
2022-09-15T21:44:34.603Z,99199.63
2022-09-15T21:47:37.563Z,99201.41
2022-09-15T21:50:50.692Z,99208.50
2022-09-15T21:53:54.050Z,99218.25
2022-09-15T21:56:57.506Z,99220.06
2022-09-15T22:00:00.079Z,99229.75
2022-09-15T22:03:02.842Z,99241.25
2022-09-15T22:06:05.484Z,99241.28
2022-09-15T22:09:09.473Z,99252.50
2022-09-15T22:12:12.026Z,99262.41
2022-09-15T22:15:15.684Z,99267.69
2022-09-15T22:18:18.574Z,99277.34
2022-09-15T22:21:22.352Z,99273.97
2022-09-15T22:24:24.938Z,99273.75
2022-09-15T22:27:27.342Z,99269.59
2022-09-15T22:30:29.840Z,99269.69
2022-09-15T22:33:32.565Z,99273.25
2022-09-15T22:36:35.055Z,99275.91
2022-09-15T22:39:58.125Z,99283.75
2022-09-15T22:42:59.861Z,99286.50
2022-09-15T22:46:02.346Z,99286.50
2022-09-15T22:49:04.848Z,99303.19
2022-09-15T22:52:07.296Z,99300.56
2022-09-15T22:55:09.819Z,99304.97
2022-09-15T22:58:12.212Z,99312.00
2022-09-15T23:01:19.318Z,99317.28
2022-09-15T23:04:21.796Z,99320.88
2022-09-15T23:07:24.273Z,99328.81
2022-09-15T23:10:27.022Z,99341.19
2022-09-15T23:13:29.595Z,99352.63
2022-09-15T23:16:32.337Z,99349.12
2022-09-15T23:19:34.970Z,99358.78
2022-09-15T23:22:37.561Z,99362.38
2022-09-15T23:25:40.487Z,99368.56
2022-09-15T23:28:43.019Z,99365.00
2022-09-15T23:31:45.817Z,99371.19
2022-09-15T23:34:48.974Z,99369.47
2022-09-15T23:37:51.455Z,99369.44
2022-09-15T23:40:53.872Z,99372.12
2022-09-15T23:43:57.911Z,99358.94
2022-09-15T23:47:00.413Z,99360.72
2022-09-15T23:50:03.036Z,99377.44
2022-09-15T23:53:05.979Z,99374.84
2022-09-15T23:56:08.645Z,99372.28
2022-09-15T23:59:11.215Z,99374.91
